Lookout, California
Current Conditions -  °F | °C
As of 4:55 PM on Tuesday 21 Oct 2014 (Local Time) from KAAT Reporting Station
Clear Clear  
Wind Chill: 53°   Ceiling: Unl
Heat Index: 53°   Visibility: 10mi
Dew Point: 33°   Wind: 0mph
Humidity: 47%   Direction: NA
Pressure: 30.06"   Gusts: NA
Location:  41.21°N, 121.16°W
Report Text: KAAT 212355Z AUTO 00000KT 10SM CLR 12/01 A3006 RMK AO2 SLP170 T01170006 10122 20072 58012
Loading
Personal Weather Stations






























Interactive Weather Map
Tropical Storm Tracking
New forecast layout! Learn more

10-Day Weather Forecast

Advertisements
Track Severe Weather on mobile